< < Back
Terminal Aerodrome Forecast


Current Version              Previous Versions:   1  2  3  4  5  6  7  8  9  

Terminal Aerodrome Forecast

725
FTAK31 PAJN 302339
TAFAHN
TAF
PAHN 302339Z 3100/3124 12010KT P6SM SCT040 BKN080
     FM310400 12006KT P6SM BKN050 OVC100
     FM310900 VRB04KT P6SM SCT060 BKN120
     FM311500 31006KT P6SM SCT050 BKN100
     FM311800 31008KT P6SM VCSH OVC050
      AMD LTD TO CLD VIS AND WIND=

Latest METAR

100
SAUS70 KWBC 310100
MTRAHN
METAR KAHN 310051Z AUTO 00000KT 10SM CLR 31/21 A2991 RMK AO2 SLP120
T03060211


USA.gov is the U.S. government's official web portal to all federal, state and local government web resources and services.